Terminal Aerodrome Forecast
Issued by NWS Charleston, WV

Current Version | Previous Version | Text Only | Print | Product List | Glossary Off
Versions: 1 2 3 4 5 6 7 8 9 10 11 12 13 14 15 16 17 18 19 20 21 22

725
FTUS41 KRLX 302338
TAFHTS
TAF
KHTS 302338Z 0100/0124 27008KT 6SM SHRA BKN060
     FM010200 26007KT P6SM SCT090
     FM011000 25006KT P6SM BKN045
     FM011400 25008KT P6SM BKN025
     FM011800 25008KT P6SM BKN040=

USA.gov is the U.S. government's official web portal to all federal, state and local government web resources and services.